Terminal Aerodrome Forecast
Issued by NWS Pocatello, ID

Home | Current Version | Previous Version | Text Only | Print | Product List | Glossary On
Versions: 1 2 3 4 5 6 7 8 9 10 11 12 13 14 15 16 17 18 19 20
000
FTUS45 KPIH 231800 AAA
TAFIDA
TAF AMD
KIDA 231852Z 2319/2418 22015G25KT P6SM SCT060 BKN070
     FM232000 24023G33KT P6SM SCT030 BKN110
     FM240300 21014KT P6SM BKN150=

USA.gov is the U.S. government's official web portal to all federal, state and local government web resources and services.